Time;durP1;ratioP1;P1;durP2;ratioP2;P2;SDS_P1;SDS_P2;PMS_P1;PMS_P2;Temp;Humidity;BMP_temperature;BMP_pressure;BME280_temperature;BME280_humidity;BME280_pressure;Samples;Min_cycle;Max_cycle;Signal;HPM_P1;HPM_P2
2021/07/16 00:01:58;;;;;;;3.05;0.73;;;15.20;84.30;;;;;;4898062;29;20445;-78
2021/07/16 00:04:24;;;;;;;3.25;0.73;;;15.00;85.00;;;;;;4898119;29;20037;-78
2021/07/16 00:06:50;;;;;;;2.72;0.52;;;14.80;85.90;;;;;;4898300;29;20029;-76
2021/07/16 00:09:17;;;;;;;1.38;0.60;;;14.70;86.60;;;;;;4898147;29;20070;-75
2021/07/16 00:11:42;;;;;;;2.03;0.50;;;14.60;86.60;;;;;;4897822;29;20032;-76
2021/07/16 00:14:08;;;;;;;5.55;0.90;;;14.60;86.70;;;;;;4897935;29;20402;-75
2021/07/16 00:16:34;;;;;;;1.02;0.40;;;14.60;86.60;;;;;;4897981;29;20120;-75
2021/07/16 00:19:00;;;;;;;2.00;0.50;;;14.60;86.60;;;;;;4897716;29;20036;-75
2021/07/16 00:21:26;;;;;;;2.55;0.77;;;14.60;86.50;;;;;;4897485;29;20032;-75
2021/07/16 00:23:52;;;;;;;2.22;0.70;;;14.50;86.40;;;;;;4897882;29;20028;-76
2021/07/16 00:26:18;;;;;;;4.60;0.70;;;14.50;86.50;;;;;;4897460;29;20457;-75
2021/07/16 00:28:44;;;;;;;2.42;0.60;;;14.50;86.60;;;;;;4897772;29;20024;-76
2021/07/16 00:31:10;;;;;;;2.47;0.70;;;14.50;86.30;;;;;;4897329;29;20582;-75
2021/07/16 00:33:36;;;;;;;3.15;0.73;;;14.50;86.30;;;;;;4897460;29;20068;-75
2021/07/16 00:36:03;;;;;;;2.75;0.77;;;14.50;86.40;;;;;;4897410;29;20067;-75
2021/07/16 00:38:28;;;;;;;3.15;0.70;;;14.50;86.50;;;;;;4897535;29;20171;-76
2021/07/16 00:40:54;;;;;;;4.78;0.80;;;14.50;86.70;;;;;;4897713;29;20020;-76
2021/07/16 00:43:20;;;;;;;5.40;0.60;;;14.50;86.80;;;;;;4897482;29;20512;-76
2021/07/16 00:45:46;;;;;;;3.22;0.68;;;14.60;86.70;;;;;;4897644;29;20437;-76
2021/07/16 00:48:11;;;;;;;2.75;0.80;;;14.60;86.60;;;;;;4897149;29;20492;-76
2021/07/16 00:50:39;;;;;;;5.03;0.90;;;14.60;86.80;;;;;;4897184;29;20032;-76
2021/07/16 00:53:09;;;;;;;3.80;0.90;;;14.60;86.70;;;;;;4896944;29;20049;-76
2021/07/16 00:55:35;;;;;;;5.93;0.95;;;14.60;86.80;;;;;;4897466;29;20035;-76
2021/07/16 00:58:01;;;;;;;1.88;0.82;;;14.60;86.80;;;;;;4897386;29;20040;-75
2021/07/16 01:00:27;;;;;;;4.97;0.90;;;14.60;87.20;;;;;;4896988;29;20068;-75
2021/07/16 01:02:53;;;;;;;3.30;0.65;;;14.60;87.40;;;;;;4897245;29;20385;-76
2021/07/16 01:05:20;;;;;;;3.05;0.70;;;14.60;87.90;;;;;;4896987;29;20029;-75
2021/07/16 01:07:48;;;;;;;4.68;0.80;;;14.40;88.60;;;;;;4897257;29;20024;-75
2021/07/16 01:10:14;;;;;;;6.45;1.13;;;14.30;89.00;;;;;;4896849;29;20476;-75
2021/07/16 01:12:42;;;;;;;3.95;1.38;;;14.30;89.30;;;;;;4896868;29;20072;-75
2021/07/16 01:15:10;;;;;;;5.78;0.73;;;14.30;89.60;;;;;;4896878;29;20024;-75
2021/07/16 01:53:41;;;;;;;2.80;0.93;;;13.90;91.40;;;;;;5194210;23;20495;-71
2021/07/16 01:56:06;;;;;;;5.07;0.88;;;13.90;91.40;;;;;;4915840;29;20088;-71
2021/07/16 01:58:32;;;;;;;5.85;1.40;;;13.90;91.60;;;;;;4915606;29;20047;-70
2021/07/16 02:00:59;;;;;;;4.57;1.13;;;13.90;91.80;;;;;;4915501;29;20035;-70
2021/07/16 02:03:25;;;;;;;4.40;1.13;;;13.80;91.90;;;;;;4915595;29;20489;-70
2021/07/16 02:05:50;;;;;;;5.95;1.15;;;13.80;92.00;;;;;;4915299;29;20107;-70
2021/07/16 02:08:19;;;;;;;5.32;0.90;;;13.80;92.10;;;;;;4915283;29;20491;-70
2021/07/16 02:10:52;;;;;;;5.25;0.80;;;13.80;92.40;;;;;;4898296;29;20077;-70
2021/07/16 02:13:18;;;;;;;3.75;1.10;;;13.80;92.40;;;;;;4915167;29;20051;-70
2021/07/16 02:15:46;;;;;;;3.03;1.13;;;13.80;92.40;;;;;;4915157;29;20107;-70
2021/07/16 02:18:13;;;;;;;6.43;1.10;;;13.80;92.50;;;;;;4915506;29;20036;-71
2021/07/16 02:20:41;;;;;;;5.82;1.00;;;13.70;92.40;;;;;;4915382;29;20030;-70
2021/07/16 02:23:10;;;;;;;4.47;1.40;;;13.70;92.70;;;;;;4915178;29;20043;-70
2021/07/16 02:25:36;;;;;;;6.80;1.30;;;13.70;92.70;;;;;;4915248;29;20036;-70
2021/07/16 02:28:05;;;;;;;3.75;1.08;;;13.70;92.80;;;;;;4917567;29;20047;-70
2021/07/16 02:30:32;;;;;;;6.85;1.40;;;13.70;93.10;;;;;;4918394;29;20032;-70
2021/07/16 02:32:59;;;;;;;7.45;1.05;;;13.70;93.20;;;;;;4918412;29;20044;-70
2021/07/16 02:35:25;;;;;;;6.95;0.93;;;13.70;93.30;;;;;;4918763;29;20025;-70
2021/07/16 02:37:51;;;;;;;4.05;1.23;;;13.70;93.40;;;;;;4918510;29;20436;-71
2021/07/16 02:40:18;;;;;;;5.13;1.10;;;13.70;93.60;;;;;;4918654;29;20024;-70
2021/07/16 02:42:45;;;;;;;6.40;1.23;;;13.70;93.80;;;;;;4918022;29;20036;-70
2021/07/16 02:45:16;;;;;;;3.28;0.85;;;13.70;93.90;;;;;;4918600;29;20025;-70
2021/07/16 02:47:42;;;;;;;8.02;1.55;;;13.70;93.90;;;;;;4918228;29;20049;-70
2021/07/16 02:50:10;;;;;;;4.72;1.13;;;13.80;94.00;;;;;;4918289;29;20032;-70
2021/07/16 02:52:36;;;;;;;6.57;1.27;;;13.80;94.10;;;;;;4917725;29;20072;-70
2021/07/16 02:55:03;;;;;;;4.20;0.80;;;13.80;94.30;;;;;;4918074;29;20062;-71
2021/07/16 02:57:29;;;;;;;6.22;1.40;;;13.80;94.40;;;;;;4918053;29;20444;-70
2021/07/16 02:59:55;;;;;;;6.25;1.23;;;13.80;94.50;;;;;;4918315;29;20058;-70
2021/07/16 03:02:21;;;;;;;3.08;0.82;;;13.90;94.60;;;;;;4917959;29;20392;-71
2021/07/16 03:04:49;;;;;;;6.57;1.25;;;14.00;94.60;;;;;;4917844;29;20032;-71
2021/07/16 03:07:16;;;;;;;6.85;1.38;;;14.10;94.60;;;;;;4918218;29;20032;-70
2021/07/16 03:09:42;;;;;;;4.63;0.98;;;14.20;94.60;;;;;;4918008;29;20123;-70
2021/07/16 03:12:08;;;;;;;3.58;0.88;;;14.20;94.60;;;;;;4918117;29;20088;-70
2021/07/16 03:14:33;;;;;;;4.93;1.10;;;14.20;94.60;;;;;;4917990;29;20032;-70
2021/07/16 03:16:59;;;;;;;5.90;1.48;;;14.30;94.50;;;;;;4917788;29;20024;-72
2021/07/16 03:19:25;;;;;;;5.47;1.15;;;14.40;94.50;;;;;;4918010;29;20028;-70
2021/07/16 03:21:50;;;;;;;4.30;1.20;;;14.50;94.50;;;;;;4917908;29;20130;-75
2021/07/16 03:24:18;;;;;;;4.45;0.82;;;14.80;94.20;;;;;;4917618;29;20161;-74
2021/07/16 03:26:44;;;;;;;4.20;1.10;;;15.10;93.70;;;;;;4917758;29;20034;-74
2021/07/16 03:29:09;;;;;;;6.50;1.40;;;15.40;93.20;;;;;;4917514;29;20507;-73
2021/07/16 03:31:35;;;;;;;5.80;1.20;;;15.70;92.60;;;;;;4917360;29;20063;-73
2021/07/16 03:34:01;;;;;;;3.80;0.93;;;15.90;92.00;;;;;;4917357;29;20028;-73
2021/07/16 03:36:27;;;;;;;10.23;1.55;;;15.90;91.80;;;;;;4917441;29;20020;-73
2021/07/16 03:38:53;;;;;;;4.57;1.27;;;15.80;91.80;;;;;;4916716;29;20024;-73
2021/07/16 03:41:19;;;;;;;4.63;1.35;;;15.80;92.00;;;;;;4917293;29;20028;-73
2021/07/16 03:43:44;;;;;;;5.40;1.27;;;15.70;91.90;;;;;;4917042;29;20111;-73
2021/07/16 03:46:10;;;;;;;4.72;1.13;;;15.80;91.90;;;;;;4917231;29;20072;-73
2021/07/16 03:48:36;;;;;;;5.35;1.35;;;15.90;91.60;;;;;;4917314;29;20039;-73
2021/07/16 03:51:02;;;;;;;6.70;1.48;;;16.00;91.50;;;;;;4916995;29;20032;-73
2021/07/16 03:53:28;;;;;;;5.25;1.23;;;16.30;91.20;;;;;;4916703;29;20056;-73
2021/07/16 03:55:53;;;;;;;5.68;1.17;;;16.60;90.80;;;;;;4916929;29;20032;-73
2021/07/16 03:58:19;;;;;;;5.78;1.20;;;17.00;90.30;;;;;;4917209;29;20032;-73
2021/07/16 04:00:46;;;;;;;3.72;1.25;;;17.40;89.30;;;;;;4917107;29;20038;-73
2021/07/16 04:03:12;;;;;;;4.47;1.20;;;17.70;87.80;;;;;;4917100;29;20029;-72
2021/07/16 04:05:39;;;;;;;5.47;1.25;;;18.00;86.60;;;;;;4916826;29;20024;-73
2021/07/16 04:08:05;;;;;;;6.05;1.05;;;18.30;85.40;;;;;;4916825;29;20024;-73
2021/07/16 04:10:37;;;;;;;5.20;1.55;;;18.50;84.80;;;;;;4916751;29;20122;-72
2021/07/16 04:13:08;;;;;;;6.65;1.42;;;18.80;83.40;;;;;;4916871;29;20133;-72
2021/07/16 04:15:35;;;;;;;7.45;1.75;;;19.00;81.50;;;;;;4916602;29;20067;-72
2021/07/16 04:18:03;;;;;;;4.93;1.27;;;19.30;80.30;;;;;;4916626;29;20032;-72
2021/07/16 04:20:30;;;;;;;3.10;1.48;;;19.40;79.10;;;;;;4916581;29;20024;-72
2021/07/16 04:22:57;;;;;;;2.80;1.58;;;19.50;78.10;;;;;;4916431;29;20036;-72
2021/07/16 04:25:24;;;;;;;7.72;1.40;;;19.70;77.30;;;;;;4916569;29;20028;-72
2021/07/16 04:27:52;;;;;;;4.60;1.45;;;19.90;76.60;;;;;;4916647;29;20103;-72
2021/07/16 04:30:20;;;;;;;4.68;1.55;;;20.00;76.40;;;;;;4916644;29;20028;-72
2021/07/16 04:32:46;;;;;;;5.88;1.90;;;20.20;75.50;;;;;;4916381;29;20096;-71
2021/07/16 04:35:14;;;;;;;4.70;1.67;;;20.40;74.80;;;;;;4916415;29;20480;-69
2021/07/16 04:37:40;;;;;;;2.92;1.52;;;20.60;73.80;;;;;;4916265;29;20111;-74
2021/07/16 04:40:08;;;;;;;4.60;1.63;;;20.80;73.40;;;;;;4916335;29;20464;-73
2021/07/16 04:42:34;;;;;;;2.45;1.65;;;21.00;72.10;;;;;;4913644;29;20043;-77
2021/07/16 04:45:00;;;;;;;3.72;1.70;;;21.20;71.60;;;;;;4904240;29;20024;-71
2021/07/16 04:47:26;;;;;;;4.05;1.50;;;21.40;69.80;;;;;;4910433;29;20028;-71
2021/07/16 04:49:52;;;;;;;4.90;1.48;;;21.50;69.80;;;;;;4915409;29;20445;-72
2021/07/16 04:52:18;;;;;;;3.83;1.80;;;21.50;69.40;;;;;;4904899;29;20147;-74
2021/07/16 04:54:43;;;;;;;5.97;1.92;;;21.50;69.00;;;;;;4901429;29;20120;-71
2021/07/16 04:57:09;;;;;;;8.05;2.28;;;21.60;68.20;;;;;;4906651;29;20024;-70
2021/07/16 04:59:38;;;;;;;4.68;2.10;;;21.70;67.50;;;;;;4900439;29;20507;-70
2021/07/16 05:02:05;;;;;;;4.72;2.45;;;21.80;67.10;;;;;;4905314;29;20024;-68
2021/07/16 05:04:31;;;;;;;6.38;2.15;;;21.90;66.70;;;;;;4907230;29;20056;-69
2021/07/16 05:06:57;;;;;;;5.45;1.80;;;22.00;66.20;;;;;;4905665;29;20468;-69
2021/07/16 05:09:23;;;;;;;4.45;2.13;;;22.20;66.20;;;;;;4905659;29;20032;-69
2021/07/16 05:11:50;;;;;;;6.18;2.13;;;22.30;64.90;;;;;;4906912;29;20047;-69
2021/07/16 05:14:16;;;;;;;2.88;2.15;;;22.30;63.70;;;;;;4910389;29;20039;-69
2021/07/16 05:16:42;;;;;;;4.95;2.30;;;22.40;63.80;;;;;;4915579;29;20115;-69
2021/07/16 05:19:08;;;;;;;3.72;2.30;;;22.50;62.80;;;;;;4914912;29;20151;-69
2021/07/16 05:21:34;;;;;;;6.68;2.53;;;22.60;62.30;;;;;;4915115;29;20110;-72
2021/07/16 05:24:00;;;;;;;4.28;2.60;;;22.50;61.60;;;;;;4915581;29;20043;-71
2021/07/16 05:26:27;;;;;;;5.45;2.78;;;22.50;60.80;;;;;;4915877;29;20436;-73
2021/07/16 05:28:52;;;;;;;4.18;2.63;;;22.60;60.70;;;;;;4915540;29;20059;-73
2021/07/16 05:31:18;;;;;;;5.75;2.72;;;22.70;60.40;;;;;;4915641;29;20055;-72
2021/07/16 05:33:47;;;;;;;4.57;2.83;;;22.90;60.10;;;;;;4898451;29;20032;-72
2021/07/16 05:36:14;;;;;;;19.95;4.90;;;22.90;59.50;;;;;;4915693;29;20032;-72
2021/07/16 05:38:40;;;;;;;6.80;2.83;;;23.00;58.70;;;;;;4915435;29;20044;-72
2021/07/16 05:41:07;;;;;;;5.15;2.97;;;23.00;58.40;;;;;;4915629;29;20020;-72
2021/07/16 05:43:34;;;;;;;4.05;2.33;;;23.00;58.00;;;;;;4915466;29;20071;-72
2021/07/16 05:46:00;;;;;;;4.45;2.88;;;22.90;58.40;;;;;;4915433;29;20107;-72
2021/07/16 05:48:26;;;;;;;7.75;2.92;;;23.00;57.30;;;;;;4915460;29;20502;-72
2021/07/16 05:50:52;;;;;;;6.13;2.85;;;23.00;58.10;;;;;;4915384;29;20024;-72
2021/07/16 05:53:18;;;;;;;4.55;2.90;;;23.00;57.10;;;;;;4915125;29;20126;-72
2021/07/16 05:55:45;;;;;;;11.60;2.97;;;22.90;57.00;;;;;;4915379;29;20036;-69
2021/07/16 05:58:11;;;;;;;8.90;3.25;;;22.80;57.50;;;;;;4915751;29;20028;-70
2021/07/16 06:00:37;;;;;;;6.35;2.90;;;22.70;56.90;;;;;;4916130;29;20100;-69
2021/07/16 06:03:03;;;;;;;9.27;3.10;;;22.50;56.80;;;;;;4919204;29;20120;-71
2021/07/16 06:05:29;;;;;;;5.20;2.97;;;22.50;57.00;;;;;;4919056;29;20028;-71
2021/07/16 06:07:55;;;;;;;6.85;3.10;;;22.40;57.50;;;;;;4919033;29;20059;-73
2021/07/16 06:10:21;;;;;;;5.85;2.53;;;22.40;57.40;;;;;;4905940;29;20499;-72
2021/07/16 06:12:47;;;;;;;4.93;2.67;;;22.50;57.40;;;;;;4899156;29;20052;-72
2021/07/16 06:15:13;;;;;;;4.60;3.08;;;22.40;57.20;;;;;;4899611;29;20461;-71
2021/07/16 06:17:39;;;;;;;6.05;2.63;;;22.30;57.20;;;;;;4900388;29;20060;-71
2021/07/16 06:20:07;;;;;;;6.45;2.83;;;22.30;58.00;;;;;;4918963;29;20020;-72
2021/07/16 06:22:33;;;;;;;4.25;2.97;;;22.50;58.20;;;;;;4918762;29;20420;-72
2021/07/16 06:24:59;;;;;;;4.28;2.97;;;22.60;57.60;;;;;;4918725;29;20083;-71
2021/07/16 06:27:25;;;;;;;5.32;3.00;;;22.50;57.30;;;;;;4918892;29;20361;-71
2021/07/16 06:29:52;;;;;;;14.82;2.70;;;22.50;57.50;;;;;;4918383;29;20048;-71
2021/07/16 06:32:18;;;;;;;6.18;2.70;;;22.70;57.50;;;;;;4918478;29;20040;-71
2021/07/16 06:34:44;;;;;;;3.70;2.72;;;22.80;57.20;;;;;;4915615;29;20153;-71
2021/07/16 06:37:09;;;;;;;4.13;2.75;;;22.90;56.70;;;;;;4895867;29;20058;-71
2021/07/16 06:39:35;;;;;;;3.97;2.70;;;22.90;56.80;;;;;;4908239;29;20028;-71
2021/07/16 06:42:01;;;;;;;4.38;2.90;;;22.90;56.80;;;;;;4908511;29;20029;-71
2021/07/16 06:44:26;;;;;;;5.95;2.95;;;22.80;56.40;;;;;;4904003;29;20036;-72
2021/07/16 06:46:52;;;;;;;7.45;3.05;;;22.60;55.90;;;;;;4905093;29;20396;-71
2021/07/16 06:49:20;;;;;;;4.75;2.95;;;22.50;56.20;;;;;;4914192;29;20028;-71
2021/07/16 06:51:46;;;;;;;5.53;2.78;;;22.40;56.40;;;;;;4880157;29;20033;-72
2021/07/16 06:54:12;;;;;;;5.32;2.78;;;22.30;56.10;;;;;;4880396;29;20053;-72
2021/07/16 06:56:37;;;;;;;4.97;3.60;;;22.10;56.10;;;;;;4880643;29;20093;-72
2021/07/16 06:59:06;;;;;;;6.45;3.00;;;21.90;56.20;;;;;;4880235;29;20037;-71
2021/07/16 07:01:32;;;;;;;5.28;2.70;;;21.80;57.00;;;;;;4880554;29;20108;-71
2021/07/16 07:03:58;;;;;;;5.43;3.08;;;21.90;57.00;;;;;;4880229;29;20482;-72
2021/07/16 07:06:24;;;;;;;4.95;2.92;;;22.00;57.20;;;;;;4881515;29;20037;-71
2021/07/16 07:08:49;;;;;;;4.25;3.08;;;21.90;56.00;;;;;;4913308;29;20027;-71
2021/07/16 07:11:15;;;;;;;6.43;3.40;;;21.90;56.60;;;;;;4909204;29;20032;-70
2021/07/16 07:13:41;;;;;;;3.92;3.08;;;22.00;56.80;;;;;;4900608;29;20116;-71
2021/07/16 07:16:07;;;;;;;7.60;2.83;;;22.10;56.00;;;;;;4903612;29;20087;-71
2021/07/16 07:18:32;;;;;;;10.57;3.20;;;22.00;55.50;;;;;;4907859;29;20049;-70
2021/07/16 07:20:58;;;;;;;10.77;3.15;;;22.10;55.50;;;;;;4909021;29;20021;-71
2021/07/16 07:23:24;;;;;;;5.93;3.13;;;22.00;54.90;;;;;;4906953;29;20091;-71
2021/07/16 07:25:50;;;;;;;6.15;2.88;;;21.90;55.00;;;;;;4906347;29;20115;-71
2021/07/16 07:28:16;;;;;;;5.32;3.05;;;22.00;56.10;;;;;;4881914;29;20035;-71
2021/07/16 07:30:42;;;;;;;6.68;3.00;;;21.90;55.80;;;;;;4898610;29;20035;-71
2021/07/16 07:33:08;;;;;;;5.20;3.00;;;21.90;55.30;;;;;;4898596;29;20038;-71
2021/07/16 07:35:34;;;;;;;4.70;2.97;;;21.90;55.60;;;;;;4898892;29;20035;-71
2021/07/16 07:38:04;;;;;;;5.90;3.05;;;21.80;55.50;;;;;;4898813;29;20032;-72
2021/07/16 07:40:31;;;;;;;7.35;3.10;;;21.70;55.60;;;;;;4898578;29;20049;-68
2021/07/16 07:42:59;;;;;;;5.78;3.83;;;21.70;55.00;;;;;;4898520;29;20164;-69
2021/07/16 07:45:25;;;;;;;6.32;3.13;;;21.60;55.00;;;;;;4898407;29;20107;-73
2021/07/16 07:47:51;;;;;;;8.82;3.50;;;21.50;55.20;;;;;;4898268;29;20112;-75
2021/07/16 07:50:17;;;;;;;9.38;3.00;;;21.40;55.70;;;;;;4900784;29;20031;-68
2021/07/16 07:52:45;;;;;;;8.52;3.50;;;21.30;55.80;;;;;;4903000;29;20056;-68
2021/07/16 07:55:12;;;;;;;7.68;3.53;;;21.40;56.00;;;;;;4909128;29;20048;-69
2021/07/16 07:57:38;;;;;;;7.95;3.13;;;21.50;56.30;;;;;;4908526;29;20039;-69
2021/07/16 08:00:07;;;;;;;9.00;3.72;;;21.50;56.40;;;;;;4897980;29;20111;-70
2021/07/16 08:02:33;;;;;;;6.72;3.38;;;21.40;55.70;;;;;;4898119;29;20028;-69
2021/07/16 08:04:58;;;;;;;7.38;3.10;;;21.40;56.20;;;;;;4898115;29;20108;-69
2021/07/16 08:07:24;;;;;;;5.80;3.03;;;21.30;55.70;;;;;;4897908;29;20036;-69
2021/07/16 08:09:50;;;;;;;7.03;3.20;;;21.30;56.10;;;;;;4897865;29;20021;-69
2021/07/16 08:12:15;;;;;;;9.00;3.20;;;21.20;56.00;;;;;;4914142;29;20036;-68
2021/07/16 08:14:41;;;;;;;11.88;3.22;;;21.30;56.60;;;;;;4908056;29;20111;-69
2021/07/16 08:17:07;;;;;;;11.65;3.13;;;21.40;58.00;;;;;;4897539;29;20036;-68
2021/07/16 08:19:34;;;;;;;8.10;3.80;;;21.70;58.40;;;;;;4896519;29;20374;-68
2021/07/16 08:22:01;;;;;;;7.60;3.38;;;21.80;55.90;;;;;;4896893;29;20032;-68
2021/07/16 08:24:27;;;;;;;4.20;2.78;;;21.80;56.00;;;;;;4896381;29;20519;-67
2021/07/16 08:26:53;;;;;;;8.07;3.25;;;21.60;55.70;;;;;;4897432;29;20126;-68
2021/07/16 08:29:18;;;;;;;5.43;2.90;;;21.60;56.10;;;;;;4897646;29;20080;-68
2021/07/16 08:31:46;;;;;;;3.90;2.70;;;21.60;56.10;;;;;;4897414;29;20040;-68
2021/07/16 08:34:12;;;;;;;7.55;2.50;;;21.70;56.70;;;;;;4897338;29;20072;-68
2021/07/16 08:36:38;;;;;;;5.15;3.20;;;21.70;56.10;;;;;;4897352;29;20060;-68
2021/07/16 08:39:05;;;;;;;7.90;3.00;;;21.60;55.10;;;;;;4897131;29;20044;-68
2021/07/16 08:41:32;;;;;;;6.50;3.00;;;21.60;55.70;;;;;;4897341;29;20107;-68
2021/07/16 08:43:57;;;;;;;3.30;2.70;;;21.50;55.00;;;;;;4897123;29;20024;-67
2021/07/16 08:46:23;;;;;;;5.03;2.95;;;21.40;55.20;;;;;;4897189;29;20037;-68
2021/07/16 08:48:50;;;;;;;6.50;2.83;;;21.40;56.60;;;;;;4897072;29;20080;-67
2021/07/16 08:51:21;;;;;;;7.15;3.00;;;21.40;56.00;;;;;;4897067;29;20346;-67
2021/07/16 08:53:52;;;;;;;7.75;3.17;;;21.40;55.90;;;;;;4896918;29;20052;-67
2021/07/16 08:56:18;;;;;;;6.40;3.20;;;21.40;56.60;;;;;;4897317;29;20060;-68
2021/07/16 08:58:44;;;;;;;5.05;3.10;;;21.40;56.00;;;;;;4897393;29;20045;-67
2021/07/16 09:01:11;;;;;;;6.25;2.92;;;21.50;56.00;;;;;;4896828;29;20473;-67
2021/07/16 09:04:04;;;;;;;4.55;3.10;;;21.40;55.60;;;;;;4897029;29;20025;-68
2021/07/16 09:06:43;;;;;;;4.80;2.70;;;21.40;55.00;;;;;;4897037;29;20068;-68
2021/07/16 09:09:09;;;;;;;5.05;2.83;;;21.40;55.90;;;;;;4897025;29;20032;-68
2021/07/16 09:11:39;;;;;;;4.53;2.80;;;21.30;55.70;;;;;;4896821;29;20108;-68
2021/07/16 09:14:05;;;;;;;7.05;2.75;;;21.30;56.30;;;;;;4896901;29;20025;-68
2021/07/16 09:16:31;;;;;;;6.28;2.67;;;21.40;56.80;;;;;;4896969;29;20040;-68
2021/07/16 09:18:57;;;;;;;4.78;2.53;;;21.40;55.30;;;;;;4896766;29;20092;-68
2021/07/16 09:21:23;;;;;;;9.15;3.05;;;21.20;55.30;;;;;;4896985;29;20024;-68
2021/07/16 09:23:49;;;;;;;7.28;3.10;;;21.30;56.30;;;;;;4896945;29;20457;-68
2021/07/16 09:26:25;;;;;;;6.22;2.70;;;21.20;55.40;;;;;;4897058;29;20384;-68
2021/07/16 09:28:52;;;;;;;4.30;2.47;;;21.20;56.00;;;;;;4896673;29;20032;-68
2021/07/16 09:31:19;;;;;;;6.10;2.65;;;21.30;56.70;;;;;;4896855;29;20372;-68
2021/07/16 09:33:52;;;;;;;4.72;2.40;;;21.40;56.50;;;;;;4896870;29;20039;-68
2021/07/16 09:36:35;;;;;;;3.90;2.28;;;21.30;55.70;;;;;;4898090;29;20485;-68
2021/07/16 09:39:07;;;;;;;4.70;2.70;;;21.30;55.70;;;;;;4900761;29;20029;-68
2021/07/16 09:41:33;;;;;;;5.25;2.20;;;21.30;56.60;;;;;;4900585;29;20365;-68
2021/07/16 09:44:03;;;;;;;6.13;2.38;;;21.40;56.50;;;;;;4900429;29;20036;-68
2021/07/16 09:46:29;;;;;;;6.40;2.83;;;21.40;55.90;;;;;;4900493;29;20488;-67
2021/07/16 09:49:13;;;;;;;3.20;2.30;;;21.30;56.60;;;;;;4900485;29;20036;-68
2021/07/16 09:51:41;;;;;;;5.05;2.50;;;21.40;57.00;;;;;;4900254;29;20040;-68
2021/07/16 09:54:11;;;;;;;3.83;2.35;;;21.40;56.30;;;;;;4899972;29;20402;-67
2021/07/16 09:56:37;;;;;;;;;;;21.40;56.60;;;;;;4900718;29;20033;-67
2021/07/16 09:59:06;;;;;;;4.82;2.58;;;21.40;56.90;;;;;;4899368;29;19918;-70
2021/07/16 10:01:33;;;;;;;6.50;2.20;;;21.40;56.20;;;;;;4900155;29;20055;-70
2021/07/16 10:04:00;;;;;;;3.10;2.20;;;21.40;55.70;;;;;;4899885;29;20448;-69
2021/07/16 10:06:28;;;;;;;2.67;1.85;;;21.50;56.80;;;;;;4900127;29;20025;-69
2021/07/16 10:08:55;;;;;;;4.05;2.28;;;21.50;56.60;;;;;;4899935;29;20582;-72
2021/07/16 10:11:23;;;;;;;5.85;2.10;;;21.60;56.60;;;;;;4898707;29;20033;-73
2021/07/16 10:13:50;;;;;;;6.30;2.72;;;21.60;56.90;;;;;;4899718;29;20385;-71
2021/07/16 10:16:16;;;;;;;2.97;2.13;;;21.60;56.60;;;;;;4899866;29;20024;-71
2021/07/16 10:18:42;;;;;;;2.95;2.15;;;21.50;56.50;;;;;;4900037;29;20128;-71
2021/07/16 10:21:08;;;;;;;3.78;2.13;;;21.40;55.60;;;;;;4899702;29;20508;-71
2021/07/16 10:23:35;;;;;;;2.60;1.90;;;21.30;55.20;;;;;;4899997;29;20033;-71
2021/07/16 10:26:07;;;;;;;4.15;2.20;;;21.20;55.70;;;;;;4899949;29;20020;-71
2021/07/16 10:28:43;;;;;;;4.85;2.08;;;21.30;55.90;;;;;;4899633;29;20024;-71
2021/07/16 10:31:39;;;;;;;5.18;1.95;;;21.20;55.90;;;;;;4899802;29;20024;-71
2021/07/16 10:34:11;;;;;;;4.72;2.00;;;21.30;56.50;;;;;;4890178;29;20111;-71
2021/07/16 10:36:45;;;;;;;3.58;2.03;;;21.30;55.90;;;;;;4900117;29;20029;-71
2021/07/16 10:39:13;;;;;;;3.58;1.77;;;21.40;56.50;;;;;;4899730;29;20091;-71
2021/07/16 10:41:41;;;;;;;2.95;1.85;;;21.40;56.20;;;;;;4899288;29;20504;-71
2021/07/16 10:44:07;;;;;;;4.38;2.35;;;21.40;56.70;;;;;;4899559;29;20051;-71
2021/07/16 10:46:35;;;;;;;4.50;2.30;;;21.40;56.60;;;;;;4899181;29;20028;-71
2021/07/16 10:49:07;;;;;;;3.40;2.00;;;21.40;56.30;;;;;;4898551;29;20039;-71
2021/07/16 10:51:34;;;;;;;4.88;1.90;;;21.40;56.30;;;;;;4899023;29;20388;-71
2021/07/16 10:54:04;;;;;;;2.13;1.58;;;21.50;56.60;;;;;;4898918;29;20112;-71
2021/07/16 10:56:37;;;;;;;5.22;1.92;;;21.50;55.40;;;;;;4899424;29;20024;-71
2021/07/16 10:59:03;;;;;;;3.63;1.90;;;21.50;55.20;;;;;;4899091;29;20044;-71
2021/07/16 11:01:35;;;;;;;5.72;2.00;;;21.50;55.80;;;;;;4899012;29;20389;-71
2021/07/16 11:04:02;;;;;;;6.18;2.25;;;21.50;55.50;;;;;;4898978;29;20064;-71
2021/07/16 11:06:47;;;;;;;3.33;2.10;;;21.50;55.50;;;;;;4899037;29;20024;-71
2021/07/16 11:09:34;;;;;;;7.25;2.35;;;21.40;55.00;;;;;;4898862;29;20033;-71
2021/07/16 11:12:45;;;;;;;4.70;2.35;;;21.50;54.70;;;;;;4898765;29;20507;-71
2021/07/16 11:15:29;;;;;;;3.40;1.92;;;21.40;55.00;;;;;;4896715;29;20120;-71
2021/07/16 11:17:56;;;;;;;3.55;2.28;;;21.50;56.80;;;;;;4899049;29;20120;-71
2021/07/16 11:20:29;;;;;;;3.53;1.77;;;21.60;56.20;;;;;;4898622;29;20039;-71
2021/07/16 11:22:56;;;;;;;4.10;1.90;;;21.60;56.20;;;;;;4898938;29;20400;-71
2021/07/16 11:25:22;;;;;;;5.22;2.15;;;21.60;55.30;;;;;;4898531;29;20025;-71
2021/07/16 11:27:48;;;;;;;5.40;2.72;;;21.50;55.60;;;;;;4898909;29;20039;-71
2021/07/16 11:30:14;;;;;;;7.60;2.20;;;21.50;55.50;;;;;;4898456;29;20039;-71
2021/07/16 11:32:40;;;;;;;3.83;2.10;;;21.50;55.50;;;;;;4898502;29;20049;-71
2021/07/16 11:35:07;;;;;;;2.85;1.90;;;21.40;54.80;;;;;;4898623;29;20024;-71
2021/07/16 11:37:34;;;;;;;4.25;2.35;;;21.40;55.50;;;;;;4898506;29;20503;-71
2021/07/16 11:40:15;;;;;;;2.90;2.30;;;21.50;56.20;;;;;;4881478;29;20036;-71
2021/07/16 11:42:49;;;;;;;5.40;2.15;;;21.50;56.10;;;;;;4898441;29;20484;-71
2021/07/16 11:45:30;;;;;;;3.63;2.30;;;21.60;55.60;;;;;;4898502;29;20115;-71
2021/07/16 11:47:57;;;;;;;4.70;2.38;;;21.50;55.80;;;;;;4898249;29;20095;-71
2021/07/16 11:50:23;;;;;;;4.47;2.42;;;21.60;56.50;;;;;;4898442;29;20025;-71
2021/07/16 11:52:51;;;;;;;3.97;2.50;;;21.60;55.80;;;;;;4897864;29;20060;-72
2021/07/16 11:55:20;;;;;;;6.35;2.65;;;21.60;56.30;;;;;;4881099;29;20029;-72
2021/07/16 11:58:01;;;;;;;3.85;2.47;;;21.70;56.10;;;;;;4898137;29;20033;-72
2021/07/16 12:00:32;;;;;;;4.45;2.05;;;21.70;55.50;;;;;;4897735;29;20025;-72
2021/07/16 12:03:14;;;;;;;3.28;2.30;;;21.60;54.80;;;;;;4898092;29;20036;-72
2021/07/16 12:05:47;;;;;;;3.60;2.42;;;21.60;55.30;;;;;;4898164;29;20021;-72
2021/07/16 12:08:39;;;;;;;6.47;2.50;;;21.60;55.50;;;;;;4880969;29;20092;-71
2021/07/16 12:11:16;;;;;;;5.05;2.95;;;21.60;55.20;;;;;;4897919;29;20025;-72
2021/07/16 12:13:42;;;;;;;4.90;3.10;;;21.50;55.60;;;;;;4897790;29;20083;-71
2021/07/16 12:16:13;;;;;;;3.70;3.13;;;21.60;56.10;;;;;;4897793;29;20448;-71
2021/07/16 12:18:39;;;;;;;4.28;3.10;;;21.60;56.20;;;;;;4897730;29;20029;-72
2021/07/16 12:21:13;;;;;;;6.05;3.20;;;21.60;56.00;;;;;;4897406;29;20044;-71
2021/07/16 12:23:40;;;;;;;8.13;3.20;;;21.60;55.70;;;;;;4897658;29;20507;-71
2021/07/16 12:26:12;;;;;;;4.07;3.10;;;21.60;55.40;;;;;;4897589;29;20029;-72
2021/07/16 12:28:38;;;;;;;5.20;3.13;;;21.60;54.90;;;;;;4897600;29;20108;-71
2021/07/16 12:31:03;;;;;;;5.68;3.03;;;21.50;54.80;;;;;;4897397;29;20108;-71
2021/07/16 12:33:36;;;;;;;4.30;3.00;;;21.50;55.60;;;;;;4897692;29;20507;-71
2021/07/16 12:36:03;;;;;;;4.68;3.20;;;21.50;55.50;;;;;;4880435;29;20028;-72
2021/07/16 12:38:31;;;;;;;7.05;3.35;;;21.50;55.70;;;;;;4897684;29;20454;-71
2021/07/16 12:41:08;;;;;;;4.43;3.85;;;21.60;56.20;;;;;;4897432;29;20095;-72
2021/07/16 12:43:38;;;;;;;6.45;3.78;;;21.70;56.40;;;;;;4897282;29;20044;-71
2021/07/16 12:46:04;;;;;;;5.65;3.83;;;21.70;55.40;;;;;;4897317;29;20132;-72
2021/07/16 12:48:35;;;;;;;6.82;3.65;;;21.70;55.90;;;;;;4897259;29;20070;-71
2021/07/16 12:51:10;;;;;;;6.18;3.90;;;21.70;55.10;;;;;;4897095;29;20059;-71
2021/07/16 12:53:45;;;;;;;5.95;3.88;;;21.60;55.00;;;;;;4897010;29;20060;-71
2021/07/16 12:56:13;;;;;;;5.05;4.13;;;21.70;55.70;;;;;;4897049;29;20095;-71
2021/07/16 12:58:39;;;;;;;6.30;3.83;;;21.70;55.90;;;;;;4897250;29;20473;-71
2021/07/16 13:01:05;;;;;;;5.43;3.97;;;21.80;55.60;;;;;;4896801;29;20033;-71
2021/07/16 13:03:39;;;;;;;4.28;3.85;;;21.70;55.50;;;;;;4880250;29;20021;-71
2021/07/16 13:06:24;;;;;;;7.15;4.20;;;21.70;55.40;;;;;;4896811;29;20111;-71
2021/07/16 13:09:33;;;;;;;6.03;4.18;;;21.70;54.60;;;;;;4880206;29;20036;-71
2021/07/16 13:12:07;;;;;;;8.73;4.17;;;21.70;54.50;;;;;;4856614;29;20037;-71
2021/07/16 13:14:35;;;;;;;5.60;4.38;;;21.70;55.20;;;;;;4857446;29;20278;-71
2021/07/16 13:17:22;;;;;;;6.05;4.57;;;21.70;55.30;;;;;;4879319;29;20446;-71
2021/07/16 13:19:59;;;;;;;7.18;4.35;;;21.70;55.00;;;;;;4896861;29;20039;-71
2021/07/16 13:22:26;;;;;;;6.38;4.85;;;21.80;55.00;;;;;;4897207;29;20064;-71
2021/07/16 13:24:52;;;;;;;5.60;4.95;;;21.70;54.60;;;;;;4896724;29;20107;-71
2021/07/16 13:27:17;;;;;;;5.88;5.22;;;21.70;54.30;;;;;;4896866;29;20103;-71
2021/07/16 13:29:44;;;;;;;7.78;4.75;;;21.70;54.50;;;;;;4896684;29;20036;-71